PWSweather.com
Personal Weather Stations
Station Observations
J24K28P63
Vysocina, PocatkyCZ 39464

VysocinaPocatkyCZ 39464

Lat: 49.2594238, Lon: 15.2331769

Elevation: 2011

Station Type: Vantage Pro2+

http://meteo-jirkalina.com

High Low Average
Temperature 86.6°F30.3°C 48.5°F9.2°C 72.8°F22.7°C
Dew Point 50.3°F10.2°C 30.2°F-1.0°C 45.8°F7.7°C
Winds 8.0 mph 12.9 kmh Calm Calm 2.0 mph S3.2 kmh S
Wind Gusts 12.0 mph19.3 kmh -- 4.0 mph6.4 kmh
Humidity 92% 19% 43%
Pressure 30.13 in1020.3 mb 29.84 in1010.5 mb -
Precipitation 0.00 in0.0 mm - -
Hour Temp Dew Point Humidity Winds Wind Gusts Pressure Precip Precip Rate Daily Precip Total
12:00 AM 52.8°F11.6°C 48.4°F9.1°C 85% Calm Calm -- 30.11 in1019.6 mb - 0.00 in0.0 mm 0.00 in0.0 mm
12:30 AM 52.2°F11.2°C 48.2°F9.0°C 86% Calm Calm -- 30.10 in1019.3 mb - 0.00 in0.0 mm 0.00 in0.0 mm
01:00 AM 51.6°F10.9°C 47.5°F8.6°C 86% Calm Calm -- 30.10 in1019.3 mb - 0.00 in0.0 mm 0.00 in0.0 mm
01:30 AM 50.8°F10.4°C 47.4°F8.6°C 88% Calm Calm -- 30.10 in1019.3 mb - 0.00 in0.0 mm 0.00 in0.0 mm
02:00 AM 50.2°F10.1°C 46.5°F8.1°C 87% Calm Calm -- 30.10 in1019.3 mb - 0.00 in0.0 mm 0.00 in0.0 mm
02:30 AM 49.5°F9.7°C 46.1°F7.8°C 88% Calm Calm -- 30.10 in1019.3 mb - 0.00 in0.0 mm 0.00 in0.0 mm
03:00 AM 49.2°F9.6°C 46.4°F8.0°C 90% Calm Calm -- 30.09 in1019.0 mb - 0.00 in0.0 mm 0.00 in0.0 mm
03:30 AM 48.8°F9.3°C 46.3°F7.9°C 91% Calm Calm -- 30.09 in1019.0 mb - 0.00 in0.0 mm 0.00 in0.0 mm
04:00 AM 48.6°F9.2°C 46.1°F7.8°C 91% Calm Calm -- 30.09 in1019.0 mb - 0.00 in0.0 mm 0.00 in0.0 mm
04:30 AM 48.5°F9.2°C 46.3°F7.9°C 92% Calm Calm -- 30.09 in1019.0 mb - 0.00 in0.0 mm 0.00 in0.0 mm
05:00 AM 48.9°F9.4°C 42.0°F5.6°C 77% Calm Calm 1.0 mph1.6 kmh 30.13 in1020.3 mb - 0.00 in0.0 mm 0.00 in0.0 mm
05:10 AM 48.7°F9.3°C 41.8°F5.4°C 77% Calm Calm -- 30.13 in1020.3 mb - 0.00 in0.0 mm 0.00 in0.0 mm
05:20 AM 49.2°F9.6°C 42.6°F5.9°C 78% 1.0 mph W1.6 kmh W 2.0 mph3.2 kmh 30.13 in1020.3 mb - 0.00 in0.0 mm 0.00 in0.0 mm
05:30 AM 50.4°F10.2°C 44.4°F6.9°C 80% Calm Calm -- 30.13 in1020.3 mb - 0.00 in0.0 mm 0.00 in0.0 mm
05:40 AM 50.9°F10.5°C 44.6°F7.0°C 79% Calm Calm -- 30.13 in1020.3 mb - 0.00 in0.0 mm 0.00 in0.0 mm
05:50 AM 52.1°F11.2°C 44.8°F7.1°C 76% Calm Calm -- 30.13 in1020.3 mb - 0.00 in0.0 mm 0.00 in0.0 mm
06:00 AM 55.4°F13.0°C 46.1°F7.8°C 71% Calm Calm -- 30.13 in1020.3 mb - 0.00 in0.0 mm 0.00 in0.0 mm
06:10 AM 58.0°F14.4°C 47.1°F8.4°C 67% Calm Calm -- 30.13 in1020.3 mb - 0.00 in0.0 mm 0.00 in0.0 mm
06:20 AM 58.9°F14.9°C 47.2°F8.4°C 65% Calm Calm 1.0 mph1.6 kmh 30.13 in1020.3 mb - 0.00 in0.0 mm 0.00 in0.0 mm
06:30 AM 59.8°F15.4°C 47.2°F8.4°C 63% 1.0 mph W1.6 kmh W 2.0 mph3.2 kmh 30.13 in1020.3 mb - 0.00 in0.0 mm 0.00 in0.0 mm
06:40 AM 61.0°F16.1°C 46.6°F8.1°C 59% 1.0 mph W1.6 kmh W 2.0 mph3.2 kmh 30.13 in1020.3 mb - 0.00 in0.0 mm 0.00 in0.0 mm
06:50 AM 62.4°F16.9°C 47.0°F8.3°C 57% Calm Calm -- 30.13 in1020.3 mb - 0.00 in0.0 mm 0.00 in0.0 mm
07:00 AM 62.8°F17.1°C 46.9°F8.3°C 56% Calm Calm -- 30.12 in1020.0 mb - 0.00 in0.0 mm 0.00 in0.0 mm
07:10 AM 64.5°F18.1°C 47.5°F8.6°C 54% Calm Calm -- 30.12 in1020.0 mb - 0.00 in0.0 mm 0.00 in0.0 mm
07:20 AM 65.2°F18.4°C 47.2°F8.4°C 52% Calm Calm 1.0 mph1.6 kmh 30.12 in1020.0 mb - 0.00 in0.0 mm 0.00 in0.0 mm
07:30 AM 65.8°F18.8°C 47.7°F8.7°C 52% Calm Calm 1.0 mph1.6 kmh 30.12 in1020.0 mb - 0.00 in0.0 mm 0.00 in0.0 mm
07:40 AM 68.3°F20.2°C 47.8°F8.8°C 48% 1.0 mph W1.6 kmh W 2.0 mph3.2 kmh 30.12 in1020.0 mb - 0.00 in0.0 mm 0.00 in0.0 mm
07:50 AM 68.1°F20.1°C 47.6°F8.7°C 48% 1.0 mph W1.6 kmh W 2.0 mph3.2 kmh 30.12 in1020.0 mb - 0.00 in0.0 mm 0.00 in0.0 mm
08:00 AM 69.3°F20.7°C 47.6°F8.7°C 46% Calm Calm 2.0 mph3.2 kmh 30.12 in1020.0 mb - 0.00 in0.0 mm 0.00 in0.0 mm
08:10 AM 70.3°F21.3°C 47.9°F8.8°C 45% Calm Calm 2.0 mph3.2 kmh 30.12 in1020.0 mb - 0.00 in0.0 mm 0.00 in0.0 mm
08:20 AM 71.7°F22.1°C 48.6°F9.2°C 44% Calm Calm 1.0 mph1.6 kmh 30.11 in1019.6 mb - 0.00 in0.0 mm 0.00 in0.0 mm
08:30 AM 71.8°F22.1°C 47.4°F8.6°C 42% 2.0 mph N3.2 kmh N 3.0 mph4.8 kmh 30.11 in1019.6 mb - 0.00 in0.0 mm 0.00 in0.0 mm
08:40 AM 73.1°F22.8°C 48.0°F8.9°C 41% Calm Calm 1.0 mph1.6 kmh 30.11 in1019.6 mb - 0.00 in0.0 mm 0.00 in0.0 mm
08:50 AM 73.6°F23.1°C 47.1°F8.4°C 39% 1.0 mph E1.6 kmh E 3.0 mph4.8 kmh 30.11 in1019.6 mb - 0.00 in0.0 mm 0.00 in0.0 mm
09:00 AM 72.7°F22.6°C 48.3°F9.1°C 42% 2.0 mph ENE3.2 kmh ENE 6.0 mph9.7 kmh 30.11 in1019.6 mb - 0.00 in0.0 mm 0.00 in0.0 mm
09:10 AM 73.3°F22.9°C 48.2°F9.0°C 41% Calm Calm 3.0 mph4.8 kmh 30.10 in1019.3 mb - 0.00 in0.0 mm 0.00 in0.0 mm
09:20 AM 74.9°F23.8°C 48.2°F9.0°C 39% 2.0 mph E3.2 kmh E 3.0 mph4.8 kmh 30.10 in1019.3 mb - 0.00 in0.0 mm 0.00 in0.0 mm
09:30 AM 74.5°F23.6°C 48.6°F9.2°C 40% 1.0 mph ESE1.6 kmh ESE -- 30.10 in1019.3 mb - 0.00 in0.0 mm 0.00 in0.0 mm
09:40 AM 74.7°F23.7°C 48.1°F8.9°C 39% 3.0 mph SE4.8 kmh SE 8.0 mph12.9 kmh 30.09 in1019.0 mb - 0.00 in0.0 mm 0.00 in0.0 mm
09:50 AM 75.1°F23.9°C 48.4°F9.1°C 39% Calm Calm 2.0 mph3.2 kmh 30.09 in1019.0 mb - 0.00 in0.0 mm 0.00 in0.0 mm
10:00 AM 75.8°F24.3°C 49.1°F9.5°C 39% 6.0 mph E9.7 kmh E 7.0 mph11.3 kmh 30.09 in1019.0 mb - 0.00 in0.0 mm 0.00 in0.0 mm
10:10 AM 75.9°F24.4°C 49.2°F9.6°C 39% 3.0 mph E4.8 kmh E 3.0 mph4.8 kmh 30.09 in1019.0 mb - 0.00 in0.0 mm 0.00 in0.0 mm
10:20 AM 76.1°F24.5°C 48.6°F9.2°C 38% 1.0 mph S1.6 kmh S 7.0 mph11.3 kmh 30.09 in1019.0 mb - 0.00 in0.0 mm 0.00 in0.0 mm
10:30 AM 77.8°F25.4°C 49.4°F9.7°C 37% 2.0 mph S3.2 kmh S 6.0 mph9.7 kmh 30.08 in1018.6 mb - 0.00 in0.0 mm 0.00 in0.0 mm
10:40 AM 76.9°F24.9°C 48.7°F9.3°C 37% 1.0 mph E1.6 kmh E 2.0 mph3.2 kmh 30.08 in1018.6 mb - 0.00 in0.0 mm 0.00 in0.0 mm
10:50 AM 78.7°F25.9°C 48.8°F9.3°C 35% 3.0 mph E4.8 kmh E 7.0 mph11.3 kmh 30.08 in1018.6 mb - 0.00 in0.0 mm 0.00 in0.0 mm
11:00 AM 79.0°F26.1°C 49.0°F9.4°C 35% 2.0 mph SE3.2 kmh SE 8.0 mph12.9 kmh 30.07 in1018.3 mb - 0.00 in0.0 mm 0.00 in0.0 mm
11:10 AM 79.8°F26.6°C 48.1°F8.9°C 33% 3.0 mph SSW4.8 kmh SSW 6.0 mph9.7 kmh 30.07 in1018.3 mb - 0.00 in0.0 mm 0.00 in0.0 mm
11:20 AM 81.0°F27.2°C 48.3°F9.1°C 32% 1.0 mph SW1.6 kmh SW 3.0 mph4.8 kmh 30.07 in1018.3 mb - 0.00 in0.0 mm 0.00 in0.0 mm
11:30 AM 75.3°F24.1°C 30.2°F-1.0°C 19% 4.3 mph SE6.9 kmh SE 9.0 mph14.5 kmh 30.04 in1017.3 mb - 0.00 in0.0 mm 0.00 in0.0 mm
11:40 AM 81.5°F27.5°C 48.0°F8.9°C 31% 3.0 mph SW4.8 kmh SW 6.0 mph9.7 kmh 30.06 in1017.9 mb - 0.00 in0.0 mm 0.00 in0.0 mm
11:50 AM 82.1°F27.8°C 47.6°F8.7°C 30% 3.0 mph NW4.8 kmh NW 5.0 mph8.0 kmh 30.05 in1017.6 mb - 0.00 in0.0 mm 0.00 in0.0 mm
12:00 PM 82.9°F28.3°C 48.3°F9.1°C 30% 1.0 mph SW1.6 kmh SW 1.0 mph1.6 kmh 30.05 in1017.6 mb - 0.00 in0.0 mm 0.00 in0.0 mm
12:10 PM 81.8°F27.7°C 48.2°F9.0°C 31% 1.0 mph E1.6 kmh E 2.0 mph3.2 kmh 30.04 in1017.3 mb - 0.00 in0.0 mm 0.00 in0.0 mm
12:20 PM 83.2°F28.4°C 50.3°F10.2°C 32% 3.0 mph SW4.8 kmh SW 5.0 mph8.0 kmh 30.04 in1017.3 mb - 0.00 in0.0 mm 0.00 in0.0 mm
12:30 PM 82.9°F28.3°C 48.3°F9.1°C 30% 6.0 mph W9.7 kmh W 9.0 mph14.5 kmh 30.03 in1016.9 mb - 0.00 in0.0 mm 0.00 in0.0 mm
12:40 PM 83.6°F28.7°C 48.9°F9.4°C 30% 5.0 mph NW8.0 kmh NW 8.0 mph12.9 kmh 30.03 in1016.9 mb - 0.00 in0.0 mm 0.00 in0.0 mm
12:50 PM 82.9°F28.3°C 47.4°F8.6°C 29% 2.0 mph SE3.2 kmh SE 3.0 mph4.8 kmh 30.02 in1016.6 mb - 0.00 in0.0 mm 0.00 in0.0 mm
01:00 PM 83.2°F28.4°C 47.6°F8.7°C 29% 2.0 mph S3.2 kmh S 3.0 mph4.8 kmh 30.02 in1016.6 mb - 0.00 in0.0 mm 0.00 in0.0 mm
01:10 PM 82.8°F28.2°C 47.3°F8.5°C 29% 2.0 mph ESE3.2 kmh ESE 2.0 mph3.2 kmh 30.01 in1016.3 mb - 0.00 in0.0 mm 0.00 in0.0 mm
01:20 PM 84.0°F28.9°C 48.3°F9.1°C 29% 8.0 mph SE12.9 kmh SE 12.0 mph19.3 kmh 30.01 in1016.3 mb - 0.00 in0.0 mm 0.00 in0.0 mm
01:30 PM 83.1°F28.4°C 46.6°F8.1°C 28% Calm Calm 3.0 mph4.8 kmh 30.00 in1015.9 mb - 0.00 in0.0 mm 0.00 in0.0 mm
01:40 PM 83.7°F28.7°C 45.2°F7.3°C 26% 3.0 mph S4.8 kmh S 7.0 mph11.3 kmh 30.00 in1015.9 mb - 0.00 in0.0 mm 0.00 in0.0 mm
01:50 PM 83.7°F28.7°C 47.1°F8.4°C 28% 6.0 mph ENE9.7 kmh ENE 8.0 mph12.9 kmh 29.99 in1015.6 mb - 0.00 in0.0 mm 0.00 in0.0 mm
02:00 PM 83.9°F28.8°C 47.3°F8.5°C 28% 1.0 mph SE1.6 kmh SE 5.0 mph8.0 kmh 29.99 in1015.6 mb - 0.00 in0.0 mm 0.00 in0.0 mm
02:10 PM 85.5°F29.7°C 46.7°F8.2°C 26% 7.0 mph S11.3 kmh S 8.0 mph12.9 kmh 29.99 in1015.6 mb - 0.00 in0.0 mm 0.00 in0.0 mm
02:20 PM 86.3°F30.2°C 46.4°F8.0°C 25% 6.0 mph WSW9.7 kmh WSW 10.0 mph16.1 kmh 29.98 in1015.2 mb - 0.00 in0.0 mm 0.00 in0.0 mm
02:30 PM 79.2°F26.2°C 33.4°F0.8°C 19% 5.5 mph SSE8.9 kmh SSE 10.0 mph16.1 kmh 29.97 in1014.9 mb - 0.00 in0.0 mm 0.00 in0.0 mm
02:40 PM 83.9°F28.8°C 45.4°F7.4°C 26% 3.0 mph S4.8 kmh S 6.0 mph9.7 kmh 29.98 in1015.2 mb - 0.00 in0.0 mm 0.00 in0.0 mm
02:50 PM 83.0°F28.3°C 45.5°F7.5°C 27% 1.0 mph S1.6 kmh S 5.0 mph8.0 kmh 29.97 in1014.9 mb - 0.00 in0.0 mm 0.00 in0.0 mm
03:00 PM 79.4°F26.3°C 33.5°F0.8°C 19% 4.4 mph SE7.1 kmh SE 7.0 mph11.3 kmh 29.95 in1014.2 mb - 0.00 in0.0 mm 0.00 in0.0 mm
03:10 PM 85.2°F29.6°C 46.4°F8.0°C 26% 2.0 mph SE3.2 kmh SE 3.0 mph4.8 kmh 29.97 in1014.9 mb - 0.00 in0.0 mm 0.00 in0.0 mm
03:20 PM 85.8°F29.9°C 47.0°F8.3°C 26% 2.0 mph S3.2 kmh S 5.0 mph8.0 kmh 29.96 in1014.6 mb - 0.00 in0.0 mm 0.00 in0.0 mm
03:30 PM 86.3°F30.2°C 46.3°F7.9°C 25% 5.0 mph E8.0 kmh E 8.0 mph12.9 kmh 29.95 in1014.2 mb - 0.00 in0.0 mm 0.00 in0.0 mm
03:40 PM 85.5°F29.7°C 46.7°F8.2°C 26% 5.0 mph E8.0 kmh E 5.0 mph8.0 kmh 29.95 in1014.2 mb - 0.00 in0.0 mm 0.00 in0.0 mm
03:50 PM 85.5°F29.7°C 45.7°F7.6°C 25% 2.0 mph ENE3.2 kmh ENE 5.0 mph8.0 kmh 29.94 in1013.9 mb - 0.00 in0.0 mm 0.00 in0.0 mm
04:00 PM 86.5°F30.3°C 45.4°F7.4°C 24% 2.0 mph SE3.2 kmh SE 3.0 mph4.8 kmh 29.94 in1013.9 mb - 0.00 in0.0 mm 0.00 in0.0 mm
04:10 PM 86.1°F30.1°C 43.9°F6.6°C 23% 6.0 mph SW9.7 kmh SW 10.0 mph16.1 kmh 29.93 in1013.5 mb - 0.00 in0.0 mm 0.00 in0.0 mm
04:20 PM 86.6°F30.3°C 44.3°F6.8°C 23% 6.0 mph S9.7 kmh S 8.0 mph12.9 kmh 29.93 in1013.5 mb - 0.00 in0.0 mm 0.00 in0.0 mm
04:30 PM 86.5°F30.3°C 43.2°F6.2°C 22% 5.0 mph SW8.0 kmh SW 7.0 mph11.3 kmh 29.93 in1013.5 mb - 0.00 in0.0 mm 0.00 in0.0 mm
04:40 PM 86.6°F30.3°C 44.4°F6.9°C 23% 2.0 mph S3.2 kmh S 3.0 mph4.8 kmh 29.93 in1013.5 mb - 0.00 in0.0 mm 0.00 in0.0 mm
04:50 PM 86.1°F30.1°C 43.9°F6.6°C 23% 6.0 mph S9.7 kmh S 7.0 mph11.3 kmh 29.93 in1013.5 mb - 0.00 in0.0 mm 0.00 in0.0 mm
05:00 PM 85.9°F29.9°C 45.0°F7.2°C 24% 3.0 mph S4.8 kmh S 8.0 mph12.9 kmh 29.92 in1013.2 mb - 0.00 in0.0 mm 0.00 in0.0 mm
05:10 PM 85.4°F29.7°C 43.4°F6.3°C 23% 5.0 mph S8.0 kmh S 8.0 mph12.9 kmh 29.92 in1013.2 mb - 0.00 in0.0 mm 0.00 in0.0 mm
05:20 PM 84.8°F29.3°C 44.0°F6.7°C 24% 3.0 mph SSE4.8 kmh SSE 6.0 mph9.7 kmh 29.92 in1013.2 mb - 0.00 in0.0 mm 0.00 in0.0 mm
05:30 PM 79.1°F26.2°C 36.9°F2.7°C 22% 2.3 mph ESE3.7 kmh ESE 8.0 mph12.9 kmh 29.91 in1012.9 mb - 0.00 in0.0 mm 0.00 in0.0 mm
05:40 PM 84.0°F28.9°C 44.4°F6.9°C 25% 2.0 mph S3.2 kmh S 3.0 mph4.8 kmh 29.91 in1012.9 mb - 0.00 in0.0 mm 0.00 in0.0 mm
05:50 PM 82.9°F28.3°C 44.5°F6.9°C 26% 1.0 mph S1.6 kmh S 3.0 mph4.8 kmh 29.91 in1012.9 mb - 0.00 in0.0 mm 0.00 in0.0 mm
06:00 PM 82.1°F27.8°C 44.8°F7.1°C 27% 5.0 mph S8.0 kmh S 9.0 mph14.5 kmh 29.90 in1012.5 mb - 0.00 in0.0 mm 0.00 in0.0 mm
06:10 PM 81.8°F27.7°C 44.5°F6.9°C 27% 3.0 mph S4.8 kmh S 3.0 mph4.8 kmh 29.90 in1012.5 mb - 0.00 in0.0 mm 0.00 in0.0 mm
06:20 PM 81.3°F27.4°C 44.1°F6.7°C 27% 2.0 mph SSW3.2 kmh SSW 3.0 mph4.8 kmh 29.89 in1012.2 mb - 0.00 in0.0 mm 0.00 in0.0 mm
06:30 PM 76.1°F24.5°C 38.7°F3.7°C 26% 2.9 mph SE4.7 kmh SE 3.0 mph4.8 kmh 29.89 in1012.2 mb - 0.00 in0.0 mm 0.00 in0.0 mm
06:40 PM 80.3°F26.8°C 44.2°F6.8°C 28% Calm Calm 1.0 mph1.6 kmh 29.89 in1012.2 mb - 0.00 in0.0 mm 0.00 in0.0 mm
06:50 PM 79.6°F26.4°C 44.6°F7.0°C 29% Calm Calm -- 29.89 in1012.2 mb - 0.00 in0.0 mm 0.00 in0.0 mm
07:00 PM 77.5°F25.3°C 47.7°F8.7°C 35% Calm Calm -- 29.89 in1012.2 mb - 0.00 in0.0 mm 0.00 in0.0 mm
07:30 PM 71.8°F22.1°C 41.2°F5.1°C 33% 2.1 mph SE3.4 kmh SE 3.0 mph4.8 kmh 29.88 in1011.9 mb - 0.00 in0.0 mm 0.00 in0.0 mm
08:00 PM 69.4°F20.8°C 42.7°F5.9°C 38% 1.2 mph SE1.9 kmh SE 3.0 mph4.8 kmh 29.88 in1011.9 mb - 0.00 in0.0 mm 0.00 in0.0 mm
08:30 PM 68.4°F20.2°C 43.1°F6.2°C 40% 2.1 mph SE3.4 kmh SE 3.0 mph4.8 kmh 29.88 in1011.9 mb - 0.00 in0.0 mm 0.00 in0.0 mm
09:00 PM 68.6°F20.3°C 43.3°F6.3°C 40% 2.6 mph SE4.2 kmh SE 4.0 mph6.4 kmh 29.88 in1011.9 mb - 0.00 in0.0 mm 0.00 in0.0 mm
09:30 PM 68.1°F20.1°C 43.5°F6.4°C 41% 4.1 mph SE6.6 kmh SE 7.0 mph11.3 kmh 29.87 in1011.5 mb - 0.00 in0.0 mm 0.00 in0.0 mm
10:00 PM 68.3°F20.2°C 43.7°F6.5°C 41% 4.1 mph SE6.6 kmh SE 9.0 mph14.5 kmh 29.86 in1011.2 mb - 0.00 in0.0 mm 0.00 in0.0 mm
10:30 PM 68.1°F20.1°C 43.5°F6.4°C 41% 4.3 mph ESE6.9 kmh ESE 6.0 mph9.7 kmh 29.86 in1011.2 mb - 0.00 in0.0 mm 0.00 in0.0 mm
11:00 PM 67.3°F19.6°C 44.6°F7.0°C 44% 2.9 mph ESE4.7 kmh ESE 7.0 mph11.3 kmh 29.85 in1010.8 mb - 0.00 in0.0 mm 0.00 in0.0 mm
11:30 PM 66.6°F19.2°C 45.2°F7.3°C 46% 1.2 mph SE1.9 kmh SE 3.0 mph4.8 kmh 29.84 in1010.5 mb - 0.00 in0.0 mm 0.00 in0.0 mm